sensor_id;sensor_type;location;lat;lon;timestamp;P1;durP1;ratioP1;P2;durP2;ratioP2
53034;SDS011;38923;53.236;6.506;2022-09-29T00:00:13;4.28;;;3.30;;
53034;SDS011;38923;53.236;6.506;2022-09-29T00:02:45;6.57;;;3.40;;
53034;SDS011;38923;53.236;6.506;2022-09-29T00:05:16;3.83;;;2.92;;
53034;SDS011;38923;53.236;6.506;2022-09-29T00:07:55;4.65;;;3.58;;
53034;SDS011;38923;53.236;6.506;2022-09-29T00:10:28;5.57;;;3.60;;
53034;SDS011;38923;53.236;6.506;2022-09-29T00:13:04;5.20;;;3.80;;
53034;SDS011;38923;53.236;6.506;2022-09-29T00:15:43;4.07;;;3.53;;
53034;SDS011;38923;53.236;6.506;2022-09-29T00:18:27;6.38;;;4.15;;
53034;SDS011;38923;53.236;6.506;2022-09-29T00:21:09;6.05;;;4.00;;
53034;SDS011;38923;53.236;6.506;2022-09-29T00:23:51;6.97;;;4.28;;
53034;SDS011;38923;53.236;6.506;2022-09-29T00:26:23;5.50;;;3.88;;
53034;SDS011;38923;53.236;6.506;2022-09-29T00:29:03;4.70;;;3.70;;
53034;SDS011;38923;53.236;6.506;2022-09-29T00:31:41;6.20;;;3.97;;
53034;SDS011;38923;53.236;6.506;2022-09-29T00:34:07;10.88;;;4.32;;
53034;SDS011;38923;53.236;6.506;2022-09-29T00:36:44;7.13;;;4.40;;
53034;SDS011;38923;53.236;6.506;2022-09-29T00:39:13;6.18;;;4.70;;
53034;SDS011;38923;53.236;6.506;2022-09-29T00:41:42;8.50;;;4.60;;
53034;SDS011;38923;53.236;6.506;2022-09-29T00:47:46;7.30;;;4.78;;
53034;SDS011;38923;53.236;6.506;2022-09-29T00:53:19;7.25;;;5.18;;
53034;SDS011;38923;53.236;6.506;2022-09-29T00:55:55;6.05;;;4.55;;
53034;SDS011;38923;53.236;6.506;2022-09-29T00:58:46;6.63;;;4.78;;
53034;SDS011;38923;53.236;6.506;2022-09-29T01:01:33;8.48;;;4.68;;
53034;SDS011;38923;53.236;6.506;2022-09-29T01:04:14;4.95;;;4.28;;
53034;SDS011;38923;53.236;6.506;2022-09-29T01:06:50;8.68;;;4.72;;
53034;SDS011;38923;53.236;6.506;2022-09-29T01:09:43;7.60;;;5.20;;
53034;SDS011;38923;53.236;6.506;2022-09-29T01:12:39;7.32;;;5.20;;
53034;SDS011;38923;53.236;6.506;2022-09-29T01:15:18;6.82;;;5.50;;
53034;SDS011;38923;53.236;6.506;2022-09-29T01:18:07;6.75;;;5.00;;
53034;SDS011;38923;53.236;6.506;2022-09-29T01:24:00;10.35;;;5.55;;
53034;SDS011;38923;53.236;6.506;2022-09-29T01:35:23;6.55;;;5.25;;
53034;SDS011;38923;53.236;6.506;2022-09-29T01:41:26;7.80;;;5.70;;
53034;SDS011;38923;53.236;6.506;2022-09-29T01:44:05;12.65;;;6.22;;
53034;SDS011;38923;53.236;6.506;2022-09-29T01:46:49;8.45;;;5.97;;
53034;SDS011;38923;53.236;6.506;2022-09-29T01:49:33;8.43;;;6.25;;
53034;SDS011;38923;53.236;6.506;2022-09-29T01:52:21;11.10;;;6.22;;
53034;SDS011;38923;53.236;6.506;2022-09-29T01:55:04;6.80;;;4.93;;
53034;SDS011;38923;53.236;6.506;2022-09-29T02:00:48;7.22;;;4.53;;
53034;SDS011;38923;53.236;6.506;2022-09-29T02:03:59;9.90;;;6.60;;
53034;SDS011;38923;53.236;6.506;2022-09-29T02:06:53;7.22;;;5.75;;
53034;SDS011;38923;53.236;6.506;2022-09-29T02:09:48;8.32;;;6.35;;
53034;SDS011;38923;53.236;6.506;2022-09-29T02:15:19;9.07;;;6.68;;
53034;SDS011;38923;53.236;6.506;2022-09-29T02:21:14;8.27;;;6.13;;
53034;SDS011;38923;53.236;6.506;2022-09-29T02:23:46;7.97;;;5.68;;
53034;SDS011;38923;53.236;6.506;2022-09-29T02:26:15;10.38;;;7.65;;
53034;SDS011;38923;53.236;6.506;2022-09-29T02:29:17;8.45;;;6.70;;
53034;SDS011;38923;53.236;6.506;2022-09-29T02:31:48;8.80;;;7.20;;
53034;SDS011;38923;53.236;6.506;2022-09-29T02:34:39;9.32;;;6.80;;
53034;SDS011;38923;53.236;6.506;2022-09-29T02:40:40;6.93;;;5.43;;
53034;SDS011;38923;53.236;6.506;2022-09-29T02:59:09;9.88;;;7.13;;
53034;SDS011;38923;53.236;6.506;2022-09-29T03:02:03;12.40;;;7.75;;
53034;SDS011;38923;53.236;6.506;2022-09-29T03:07:13;9.55;;;7.10;;
53034;SDS011;38923;53.236;6.506;2022-09-29T03:09:40;9.35;;;7.60;;
53034;SDS011;38923;53.236;6.506;2022-09-29T03:12:09;8.32;;;6.90;;
53034;SDS011;38923;53.236;6.506;2022-09-29T03:14:36;10.80;;;8.05;;
53034;SDS011;38923;53.236;6.506;2022-09-29T03:17:21;10.77;;;8.38;;
53034;SDS011;38923;53.236;6.506;2022-09-29T03:20:04;9.13;;;7.97;;
53034;SDS011;38923;53.236;6.506;2022-09-29T03:22:34;14.93;;;8.85;;
53034;SDS011;38923;53.236;6.506;2022-09-29T03:25:10;13.30;;;8.73;;
53034;SDS011;38923;53.236;6.506;2022-09-29T03:27:57;10.13;;;8.40;;
53034;SDS011;38923;53.236;6.506;2022-09-29T03:33:12;10.30;;;8.38;;
53034;SDS011;38923;53.236;6.506;2022-09-29T03:36:07;13.38;;;8.48;;
53034;SDS011;38923;53.236;6.506;2022-09-29T03:38:36;12.32;;;8.25;;
53034;SDS011;38923;53.236;6.506;2022-09-29T03:41:14;13.68;;;8.07;;
53034;SDS011;38923;53.236;6.506;2022-09-29T03:43:40;9.85;;;7.85;;
53034;SDS011;38923;53.236;6.506;2022-09-29T03:46:38;11.18;;;8.45;;
53034;SDS011;38923;53.236;6.506;2022-09-29T03:49:14;12.70;;;8.10;;
53034;SDS011;38923;53.236;6.506;2022-09-29T03:51:45;11.95;;;8.25;;
53034;SDS011;38923;53.236;6.506;2022-09-29T03:54:25;10.82;;;8.60;;
53034;SDS011;38923;53.236;6.506;2022-09-29T03:57:04;10.57;;;8.13;;
53034;SDS011;38923;53.236;6.506;2022-09-29T03:59:58;9.90;;;8.35;;
53034;SDS011;38923;53.236;6.506;2022-09-29T04:02:42;10.77;;;8.23;;
53034;SDS011;38923;53.236;6.506;2022-09-29T04:05:14;10.18;;;8.27;;
53034;SDS011;38923;53.236;6.506;2022-09-29T04:08:00;9.90;;;7.80;;
53034;SDS011;38923;53.236;6.506;2022-09-29T04:10:32;12.10;;;8.20;;
53034;SDS011;38923;53.236;6.506;2022-09-29T04:13:23;10.63;;;8.15;;
53034;SDS011;38923;53.236;6.506;2022-09-29T04:16:04;9.52;;;7.75;;
53034;SDS011;38923;53.236;6.506;2022-09-29T04:21:36;9.77;;;7.97;;
53034;SDS011;38923;53.236;6.506;2022-09-29T04:24:08;10.88;;;8.07;;
53034;SDS011;38923;53.236;6.506;2022-09-29T04:26:36;12.35;;;8.98;;
53034;SDS011;38923;53.236;6.506;2022-09-29T04:29:07;12.07;;;8.93;;
53034;SDS011;38923;53.236;6.506;2022-09-29T04:32:01;11.45;;;8.55;;
53034;SDS011;38923;53.236;6.506;2022-09-29T04:34:33;11.30;;;8.43;;
53034;SDS011;38923;53.236;6.506;2022-09-29T04:37:43;10.75;;;8.95;;
53034;SDS011;38923;53.236;6.506;2022-09-29T04:40:09;10.95;;;8.80;;
53034;SDS011;38923;53.236;6.506;2022-09-29T04:42:44;11.48;;;8.75;;
53034;SDS011;38923;53.236;6.506;2022-09-29T04:45:33;10.95;;;8.32;;
53034;SDS011;38923;53.236;6.506;2022-09-29T04:48:04;11.85;;;9.13;;
53034;SDS011;38923;53.236;6.506;2022-09-29T04:50:38;12.02;;;8.70;;
53034;SDS011;38923;53.236;6.506;2022-09-29T04:53:12;12.23;;;9.30;;
53034;SDS011;38923;53.236;6.506;2022-09-29T04:55:39;11.52;;;9.30;;
53034;SDS011;38923;53.236;6.506;2022-09-29T04:58:15;11.70;;;9.30;;
53034;SDS011;38923;53.236;6.506;2022-09-29T05:03:55;12.15;;;8.82;;
53034;SDS011;38923;53.236;6.506;2022-09-29T05:06:33;12.07;;;8.93;;
53034;SDS011;38923;53.236;6.506;2022-09-29T05:09:30;13.63;;;9.13;;
53034;SDS011;38923;53.236;6.506;2022-09-29T05:12:02;11.98;;;9.00;;
53034;SDS011;38923;53.236;6.506;2022-09-29T05:14:48;15.18;;;9.70;;
53034;SDS011;38923;53.236;6.506;2022-09-29T05:17:23;13.35;;;10.07;;
53034;SDS011;38923;53.236;6.506;2022-09-29T05:22:48;14.00;;;9.50;;
53034;SDS011;38923;53.236;6.506;2022-09-29T05:25:14;12.80;;;9.82;;
53034;SDS011;38923;53.236;6.506;2022-09-29T05:28:00;12.10;;;9.77;;
53034;SDS011;38923;53.236;6.506;2022-09-29T05:30:41;13.30;;;9.68;;
53034;SDS011;38923;53.236;6.506;2022-09-29T05:33:24;14.23;;;9.80;;
53034;SDS011;38923;53.236;6.506;2022-09-29T05:35:53;14.15;;;10.38;;
53034;SDS011;38923;53.236;6.506;2022-09-29T05:38:22;11.57;;;8.75;;
53034;SDS011;38923;53.236;6.506;2022-09-29T05:41:02;11.55;;;9.18;;
53034;SDS011;38923;53.236;6.506;2022-09-29T05:44:02;11.30;;;8.65;;
53034;SDS011;38923;53.236;6.506;2022-09-29T05:46:48;11.10;;;8.73;;
53034;SDS011;38923;53.236;6.506;2022-09-29T05:49:19;12.68;;;9.35;;
53034;SDS011;38923;53.236;6.506;2022-09-29T05:52:00;12.35;;;9.65;;
53034;SDS011;38923;53.236;6.506;2022-09-29T05:54:52;11.23;;;8.13;;
53034;SDS011;38923;53.236;6.506;2022-09-29T06:04:37;13.25;;;8.88;;
53034;SDS011;38923;53.236;6.506;2022-09-29T06:08:10;15.02;;;9.85;;
53034;SDS011;38923;53.236;6.506;2022-09-29T06:20:11;14.90;;;10.43;;
53034;SDS011;38923;53.236;6.506;2022-09-29T06:22:56;11.43;;;8.90;;
53034;SDS011;38923;53.236;6.506;2022-09-29T06:25:22;13.23;;;8.82;;
53034;SDS011;38923;53.236;6.506;2022-09-29T06:31:01;16.58;;;10.98;;
53034;SDS011;38923;53.236;6.506;2022-09-29T06:33:29;15.15;;;11.13;;
53034;SDS011;38923;53.236;6.506;2022-09-29T06:35:56;13.20;;;10.05;;
53034;SDS011;38923;53.236;6.506;2022-09-29T06:38:41;14.95;;;11.07;;
53034;SDS011;38923;53.236;6.506;2022-09-29T06:41:09;16.60;;;11.32;;
53034;SDS011;38923;53.236;6.506;2022-09-29T06:43:35;20.00;;;11.73;;
53034;SDS011;38923;53.236;6.506;2022-09-29T06:46:02;15.10;;;11.00;;
53034;SDS011;38923;53.236;6.506;2022-09-29T06:48:29;17.75;;;11.85;;
53034;SDS011;38923;53.236;6.506;2022-09-29T06:50:55;14.25;;;11.27;;
53034;SDS011;38923;53.236;6.506;2022-09-29T06:53:21;15.88;;;12.13;;
53034;SDS011;38923;53.236;6.506;2022-09-29T06:55:51;18.20;;;13.68;;
53034;SDS011;38923;53.236;6.506;2022-09-29T06:58:25;19.00;;;13.07;;
53034;SDS011;38923;53.236;6.506;2022-09-29T07:00:52;22.13;;;13.23;;
53034;SDS011;38923;53.236;6.506;2022-09-29T07:03:18;16.67;;;12.73;;
53034;SDS011;38923;53.236;6.506;2022-09-29T07:05:46;19.13;;;12.23;;
53034;SDS011;38923;53.236;6.506;2022-09-29T07:08:12;16.48;;;12.57;;
53034;SDS011;38923;53.236;6.506;2022-09-29T07:10:38;16.13;;;12.20;;
53034;SDS011;38923;53.236;6.506;2022-09-29T07:13:06;16.65;;;12.95;;
53034;SDS011;38923;53.236;6.506;2022-09-29T07:15:33;17.70;;;12.73;;
53034;SDS011;38923;53.236;6.506;2022-09-29T07:18:02;20.95;;;14.23;;
53034;SDS011;38923;53.236;6.506;2022-09-29T07:20:29;26.25;;;16.55;;
53034;SDS011;38923;53.236;6.506;2022-09-29T07:22:56;27.67;;;16.27;;
53034;SDS011;38923;53.236;6.506;2022-09-29T07:25:23;26.75;;;17.52;;
53034;SDS011;38923;53.236;6.506;2022-09-29T07:27:49;27.27;;;19.35;;
53034;SDS011;38923;53.236;6.506;2022-09-29T07:30:16;26.75;;;18.77;;
53034;SDS011;38923;53.236;6.506;2022-09-29T07:32:45;26.30;;;18.52;;
53034;SDS011;38923;53.236;6.506;2022-09-29T07:35:11;30.50;;;20.58;;
53034;SDS011;38923;53.236;6.506;2022-09-29T07:37:37;29.20;;;19.67;;
53034;SDS011;38923;53.236;6.506;2022-09-29T07:40:04;28.50;;;19.58;;
53034;SDS011;38923;53.236;6.506;2022-09-29T07:42:30;30.15;;;20.60;;
53034;SDS011;38923;53.236;6.506;2022-09-29T07:44:56;34.50;;;20.98;;
53034;SDS011;38923;53.236;6.506;2022-09-29T07:47:22;31.23;;;20.05;;
53034;SDS011;38923;53.236;6.506;2022-09-29T07:49:48;28.45;;;17.58;;
53034;SDS011;38923;53.236;6.506;2022-09-29T07:52:14;30.98;;;19.08;;
53034;SDS011;38923;53.236;6.506;2022-09-29T07:54:40;28.23;;;19.45;;
53034;SDS011;38923;53.236;6.506;2022-09-29T07:57:06;31.55;;;20.17;;
53034;SDS011;38923;53.236;6.506;2022-09-29T07:59:32;28.23;;;19.55;;
53034;SDS011;38923;53.236;6.506;2022-09-29T08:02:01;31.73;;;18.73;;
53034;SDS011;38923;53.236;6.506;2022-09-29T08:04:28;28.48;;;20.25;;
53034;SDS011;38923;53.236;6.506;2022-09-29T08:06:55;30.27;;;18.65;;
53034;SDS011;38923;53.236;6.506;2022-09-29T08:09:21;27.45;;;18.15;;
53034;SDS011;38923;53.236;6.506;2022-09-29T08:11:47;28.70;;;19.08;;
53034;SDS011;38923;53.236;6.506;2022-09-29T08:14:13;27.25;;;18.67;;
53034;SDS011;38923;53.236;6.506;2022-09-29T08:16:39;32.05;;;20.90;;
53034;SDS011;38923;53.236;6.506;2022-09-29T08:19:08;33.65;;;20.33;;
53034;SDS011;38923;53.236;6.506;2022-09-29T08:21:33;32.40;;;20.05;;
53034;SDS011;38923;53.236;6.506;2022-09-29T08:24:01;32.85;;;22.35;;
53034;SDS011;38923;53.236;6.506;2022-09-29T08:26:32;37.67;;;24.30;;
53034;SDS011;38923;53.236;6.506;2022-09-29T08:29:03;31.35;;;21.65;;
53034;SDS011;38923;53.236;6.506;2022-09-29T08:31:29;31.02;;;20.10;;
53034;SDS011;38923;53.236;6.506;2022-09-29T08:33:55;32.40;;;21.40;;
53034;SDS011;38923;53.236;6.506;2022-09-29T08:36:25;35.47;;;22.48;;
53034;SDS011;38923;53.236;6.506;2022-09-29T08:38:54;34.80;;;22.00;;
53034;SDS011;38923;53.236;6.506;2022-09-29T08:41:37;36.70;;;24.75;;
53034;SDS011;38923;53.236;6.506;2022-09-29T08:44:13;40.10;;;26.17;;
53034;SDS011;38923;53.236;6.506;2022-09-29T08:47:04;37.15;;;25.23;;
53034;SDS011;38923;53.236;6.506;2022-09-29T08:49:41;37.47;;;24.00;;
53034;SDS011;38923;53.236;6.506;2022-09-29T08:52:13;39.80;;;25.27;;
53034;SDS011;38923;53.236;6.506;2022-09-29T08:54:44;34.95;;;23.60;;
53034;SDS011;38923;53.236;6.506;2022-09-29T08:57:12;35.13;;;22.08;;
53034;SDS011;38923;53.236;6.506;2022-09-29T08:59:56;31.50;;;22.48;;
53034;SDS011;38923;53.236;6.506;2022-09-29T09:16:31;31.67;;;20.58;;
53034;SDS011;38923;53.236;6.506;2022-09-29T09:22:00;22.48;;;13.80;;
53034;SDS011;38923;53.236;6.506;2022-09-29T09:27:24;20.65;;;14.43;;
53034;SDS011;38923;53.236;6.506;2022-09-29T09:30:01;14.90;;;11.30;;
53034;SDS011;38923;53.236;6.506;2022-09-29T09:32:37;19.30;;;12.95;;
53034;SDS011;38923;53.236;6.506;2022-09-29T09:35:34;15.05;;;10.40;;
53034;SDS011;38923;53.236;6.506;2022-09-29T09:38:11;15.20;;;10.35;;
53034;SDS011;38923;53.236;6.506;2022-09-29T09:40:46;14.93;;;10.30;;
53034;SDS011;38923;53.236;6.506;2022-09-29T09:43:16;15.80;;;10.30;;
53034;SDS011;38923;53.236;6.506;2022-09-29T09:46:02;12.45;;;8.73;;
53034;SDS011;38923;53.236;6.506;2022-09-29T09:48:45;13.98;;;8.52;;
53034;SDS011;38923;53.236;6.506;2022-09-29T09:54:46;9.85;;;6.00;;
53034;SDS011;38923;53.236;6.506;2022-09-29T10:02:47;9.05;;;5.53;;
53034;SDS011;38923;53.236;6.506;2022-09-29T10:05:18;6.05;;;5.05;;
53034;SDS011;38923;53.236;6.506;2022-09-29T10:07:50;8.93;;;4.90;;
53034;SDS011;38923;53.236;6.506;2022-09-29T10:10:18;9.07;;;4.60;;
53034;SDS011;38923;53.236;6.506;2022-09-29T10:12:57;6.65;;;3.47;;
53034;SDS011;38923;53.236;6.506;2022-09-29T10:15:58;5.10;;;2.10;;
53034;SDS011;38923;53.236;6.506;2022-09-29T10:18:41;3.30;;;2.65;;
53034;SDS011;38923;53.236;6.506;2022-09-29T10:21:34;6.57;;;3.03;;
53034;SDS011;38923;53.236;6.506;2022-09-29T10:24:23;5.20;;;3.15;;
53034;SDS011;38923;53.236;6.506;2022-09-29T10:26:56;6.22;;;3.30;;
53034;SDS011;38923;53.236;6.506;2022-09-29T10:32:05;3.72;;;2.28;;
53034;SDS011;38923;53.236;6.506;2022-09-29T10:34:36;2.75;;;2.05;;
53034;SDS011;38923;53.236;6.506;2022-09-29T10:37:26;2.90;;;1.20;;
53034;SDS011;38923;53.236;6.506;2022-09-29T10:42:37;2.65;;;1.48;;
53034;SDS011;38923;53.236;6.506;2022-09-29T10:45:18;3.35;;;1.67;;
53034;SDS011;38923;53.236;6.506;2022-09-29T10:50:28;5.03;;;2.28;;
53034;SDS011;38923;53.236;6.506;2022-09-29T10:52:58;2.78;;;1.95;;
53034;SDS011;38923;53.236;6.506;2022-09-29T10:55:34;3.10;;;2.10;;
53034;SDS011;38923;53.236;6.506;2022-09-29T10:58:28;4.97;;;2.45;;
53034;SDS011;38923;53.236;6.506;2022-09-29T11:06:38;5.70;;;3.00;;
53034;SDS011;38923;53.236;6.506;2022-09-29T11:09:06;4.47;;;3.20;;
53034;SDS011;38923;53.236;6.506;2022-09-29T11:17:22;4.32;;;2.50;;
53034;SDS011;38923;53.236;6.506;2022-09-29T11:20:00;4.50;;;2.00;;
53034;SDS011;38923;53.236;6.506;2022-09-29T11:33:57;2.67;;;1.58;;
53034;SDS011;38923;53.236;6.506;2022-09-29T11:36:56;3.28;;;1.30;;
53034;SDS011;38923;53.236;6.506;2022-09-29T11:42:34;1.88;;;1.23;;
53034;SDS011;38923;53.236;6.506;2022-09-29T11:48:47;2.75;;;0.75;;
53034;SDS011;38923;53.236;6.506;2022-09-29T11:51:49;2.45;;;0.50;;
53034;SDS011;38923;53.236;6.506;2022-09-29T11:57:13;1.50;;;0.68;;
53034;SDS011;38923;53.236;6.506;2022-09-29T12:02:37;2.20;;;0.90;;
53034;SDS011;38923;53.236;6.506;2022-09-29T12:05:35;2.10;;;0.57;;
53034;SDS011;38923;53.236;6.506;2022-09-29T12:08:15;2.50;;;0.80;;
53034;SDS011;38923;53.236;6.506;2022-09-29T12:14:24;2.13;;;1.17;;
53034;SDS011;38923;53.236;6.506;2022-09-29T12:17:08;2.67;;;1.20;;
53034;SDS011;38923;53.236;6.506;2022-09-29T12:19:40;1.00;;;0.63;;
53034;SDS011;38923;53.236;6.506;2022-09-29T12:22:10;1.65;;;0.60;;
53034;SDS011;38923;53.236;6.506;2022-09-29T12:27:31;2.08;;;0.90;;
53034;SDS011;38923;53.236;6.506;2022-09-29T12:30:02;1.08;;;0.40;;
53034;SDS011;38923;53.236;6.506;2022-09-29T12:32:38;0.85;;;0.60;;
53034;SDS011;38923;53.236;6.506;2022-09-29T12:35:14;2.08;;;0.70;;
53034;SDS011;38923;53.236;6.506;2022-09-29T12:37:54;1.52;;;0.50;;
53034;SDS011;38923;53.236;6.506;2022-09-29T12:41:00;3.20;;;0.50;;
53034;SDS011;38923;53.236;6.506;2022-09-29T12:43:34;1.75;;;0.40;;
53034;SDS011;38923;53.236;6.506;2022-09-29T12:46:46;2.05;;;0.30;;
53034;SDS011;38923;53.236;6.506;2022-09-29T12:51:47;2.55;;;0.45;;
53034;SDS011;38923;53.236;6.506;2022-09-29T12:59:37;1.90;;;1.33;;
53034;SDS011;38923;53.236;6.506;2022-09-29T13:31:29;4.55;;;0.50;;
53034;SDS011;38923;53.236;6.506;2022-09-29T13:34:03;2.95;;;0.47;;
53034;SDS011;38923;53.236;6.506;2022-09-29T13:36:36;2.80;;;0.60;;
53034;SDS011;38923;53.236;6.506;2022-09-29T13:39:20;1.48;;;0.40;;
53034;SDS011;38923;53.236;6.506;2022-09-29T13:41:54;3.35;;;0.98;;
53034;SDS011;38923;53.236;6.506;2022-09-29T13:44:24;0.45;;;0.40;;
53034;SDS011;38923;53.236;6.506;2022-09-29T13:46:54;3.10;;;0.70;;
53034;SDS011;38923;53.236;6.506;2022-09-29T13:49:23;2.60;;;0.47;;
53034;SDS011;38923;53.236;6.506;2022-09-29T13:54:42;1.60;;;0.43;;
53034;SDS011;38923;53.236;6.506;2022-09-29T14:02:29;1.65;;;0.40;;
53034;SDS011;38923;53.236;6.506;2022-09-29T14:04:56;1.27;;;0.43;;
53034;SDS011;38923;53.236;6.506;2022-09-29T14:07:42;0.35;;;0.20;;
53034;SDS011;38923;53.236;6.506;2022-09-29T14:10:22;2.30;;;0.55;;
53034;SDS011;38923;53.236;6.506;2022-09-29T14:13:28;5.68;;;0.70;;
53034;SDS011;38923;53.236;6.506;2022-09-29T14:16:08;3.28;;;0.60;;
53034;SDS011;38923;53.236;6.506;2022-09-29T14:18:59;4.00;;;0.60;;
53034;SDS011;38923;53.236;6.506;2022-09-29T14:21:48;0.60;;;0.30;;
53034;SDS011;38923;53.236;6.506;2022-09-29T14:27:33;4.22;;;0.73;;
53034;SDS011;38923;53.236;6.506;2022-09-29T14:40:54;2.92;;;0.50;;
53034;SDS011;38923;53.236;6.506;2022-09-29T14:46:25;1.70;;;0.32;;
53034;SDS011;38923;53.236;6.506;2022-09-29T14:58:36;1.23;;;0.38;;
53034;SDS011;38923;53.236;6.506;2022-09-29T15:01:27;1.15;;;0.13;;
53034;SDS011;38923;53.236;6.506;2022-09-29T15:04:08;2.60;;;0.30;;
53034;SDS011;38923;53.236;6.506;2022-09-29T15:09:44;1.92;;;0.28;;
53034;SDS011;38923;53.236;6.506;2022-09-29T15:12:18;3.78;;;0.40;;
53034;SDS011;38923;53.236;6.506;2022-09-29T15:15:03;1.83;;;0.35;;
53034;SDS011;38923;53.236;6.506;2022-09-29T15:17:33;0.90;;;0.40;;
53034;SDS011;38923;53.236;6.506;2022-09-29T15:23:10;2.03;;;0.30;;
53034;SDS011;38923;53.236;6.506;2022-09-29T15:25:57;1.25;;;0.32;;
53034;SDS011;38923;53.236;6.506;2022-09-29T15:31:15;2.67;;;0.47;;
53034;SDS011;38923;53.236;6.506;2022-09-29T15:33:53;2.03;;;0.52;;
53034;SDS011;38923;53.236;6.506;2022-09-29T15:36:24;1.40;;;0.50;;
53034;SDS011;38923;53.236;6.506;2022-09-29T15:39:06;2.30;;;0.43;;
53034;SDS011;38923;53.236;6.506;2022-09-29T15:41:47;1.85;;;0.50;;
53034;SDS011;38923;53.236;6.506;2022-09-29T15:44:43;1.75;;;0.50;;
53034;SDS011;38923;53.236;6.506;2022-09-29T15:47:20;1.35;;;0.40;;
53034;SDS011;38923;53.236;6.506;2022-09-29T15:49:51;0.88;;;0.40;;
53034;SDS011;38923;53.236;6.506;2022-09-29T15:52:18;4.20;;;0.65;;
53034;SDS011;38923;53.236;6.506;2022-09-29T15:54:52;3.63;;;0.45;;
53034;SDS011;38923;53.236;6.506;2022-09-29T15:57:30;1.90;;;0.70;;
53034;SDS011;38923;53.236;6.506;2022-09-29T16:03:09;2.58;;;0.60;;
53034;SDS011;38923;53.236;6.506;2022-09-29T16:05:54;1.95;;;0.40;;
53034;SDS011;38923;53.236;6.506;2022-09-29T16:08:38;1.42;;;0.50;;
53034;SDS011;38923;53.236;6.506;2022-09-29T16:11:19;5.35;;;0.50;;
53034;SDS011;38923;53.236;6.506;2022-09-29T16:13:57;2.80;;;0.60;;
53034;SDS011;38923;53.236;6.506;2022-09-29T16:16:52;1.02;;;0.60;;
53034;SDS011;38923;53.236;6.506;2022-09-29T16:19:22;0.88;;;0.50;;
53034;SDS011;38923;53.236;6.506;2022-09-29T16:21:56;3.28;;;0.70;;
53034;SDS011;38923;53.236;6.506;2022-09-29T16:24:31;1.10;;;0.70;;
53034;SDS011;38923;53.236;6.506;2022-09-29T16:27:03;2.15;;;0.60;;
53034;SDS011;38923;53.236;6.506;2022-09-29T16:29:36;1.58;;;0.60;;
53034;SDS011;38923;53.236;6.506;2022-09-29T16:38:14;1.73;;;0.93;;
53034;SDS011;38923;53.236;6.506;2022-09-29T16:40:48;1.85;;;0.70;;
53034;SDS011;38923;53.236;6.506;2022-09-29T16:43:27;1.17;;;0.60;;
53034;SDS011;38923;53.236;6.506;2022-09-29T16:52:41;2.15;;;0.60;;
53034;SDS011;38923;53.236;6.506;2022-09-29T16:58:02;1.52;;;0.60;;
53034;SDS011;38923;53.236;6.506;2022-09-29T17:00:36;3.28;;;0.95;;
53034;SDS011;38923;53.236;6.506;2022-09-29T17:03:03;5.60;;;1.90;;
53034;SDS011;38923;53.236;6.506;2022-09-29T17:05:33;2.92;;;1.27;;
53034;SDS011;38923;53.236;6.506;2022-09-29T17:08:17;3.70;;;1.52;;
53034;SDS011;38923;53.236;6.506;2022-09-29T17:10:47;1.75;;;1.33;;
53034;SDS011;38923;53.236;6.506;2022-09-29T17:13:16;1.80;;;1.50;;
53034;SDS011;38923;53.236;6.506;2022-09-29T17:15:44;3.38;;;1.60;;
53034;SDS011;38923;53.236;6.506;2022-09-29T17:18:15;2.95;;;1.60;;
53034;SDS011;38923;53.236;6.506;2022-09-29T17:20:42;4.25;;;1.50;;
53034;SDS011;38923;53.236;6.506;2022-09-29T17:23:09;4.35;;;1.55;;
53034;SDS011;38923;53.236;6.506;2022-09-29T17:25:39;2.95;;;1.60;;
53034;SDS011;38923;53.236;6.506;2022-09-29T17:28:14;2.67;;;1.50;;
53034;SDS011;38923;53.236;6.506;2022-09-29T17:30:48;3.08;;;1.80;;
53034;SDS011;38923;53.236;6.506;2022-09-29T17:33:16;3.63;;;2.28;;
53034;SDS011;38923;53.236;6.506;2022-09-29T17:35:44;3.58;;;2.38;;
53034;SDS011;38923;53.236;6.506;2022-09-29T17:38:15;3.85;;;2.47;;
53034;SDS011;38923;53.236;6.506;2022-09-29T17:43:19;4.78;;;1.95;;
53034;SDS011;38923;53.236;6.506;2022-09-29T17:45:47;2.95;;;2.30;;
53034;SDS011;38923;53.236;6.506;2022-09-29T17:48:17;3.92;;;2.22;;
53034;SDS011;38923;53.236;6.506;2022-09-29T17:50:47;3.35;;;1.98;;
53034;SDS011;38923;53.236;6.506;2022-09-29T17:53:15;3.72;;;2.30;;
53034;SDS011;38923;53.236;6.506;2022-09-29T17:55:42;6.43;;;2.03;;
53034;SDS011;38923;53.236;6.506;2022-09-29T17:58:11;3.60;;;2.17;;
53034;SDS011;38923;53.236;6.506;2022-09-29T18:00:40;2.72;;;1.55;;
53034;SDS011;38923;53.236;6.506;2022-09-29T18:03:08;3.45;;;1.95;;
53034;SDS011;38923;53.236;6.506;2022-09-29T18:05:42;3.80;;;3.38;;
53034;SDS011;38923;53.236;6.506;2022-09-29T18:08:17;5.00;;;3.10;;
53034;SDS011;38923;53.236;6.506;2022-09-29T18:10:44;3.42;;;2.17;;
53034;SDS011;38923;53.236;6.506;2022-09-29T18:13:20;4.47;;;2.50;;
53034;SDS011;38923;53.236;6.506;2022-09-29T18:15:47;5.25;;;2.70;;
53034;SDS011;38923;53.236;6.506;2022-09-29T18:18:15;4.88;;;2.40;;
53034;SDS011;38923;53.236;6.506;2022-09-29T18:20:42;6.43;;;2.53;;
53034;SDS011;38923;53.236;6.506;2022-09-29T18:23:12;2.78;;;2.42;;
53034;SDS011;38923;53.236;6.506;2022-09-29T18:25:41;3.47;;;2.75;;
53034;SDS011;38923;53.236;6.506;2022-09-29T18:28:09;4.95;;;2.80;;
53034;SDS011;38923;53.236;6.506;2022-09-29T18:30:36;3.47;;;2.67;;
53034;SDS011;38923;53.236;6.506;2022-09-29T18:33:09;6.15;;;3.45;;
53034;SDS011;38923;53.236;6.506;2022-09-29T18:35:40;5.10;;;3.00;;
53034;SDS011;38923;53.236;6.506;2022-09-29T18:38:09;4.63;;;2.78;;
53034;SDS011;38923;53.236;6.506;2022-09-29T18:40:35;4.38;;;3.47;;
53034;SDS011;38923;53.236;6.506;2022-09-29T18:43:03;5.38;;;3.45;;
53034;SDS011;38923;53.236;6.506;2022-09-29T18:45:32;4.95;;;3.55;;
53034;SDS011;38923;53.236;6.506;2022-09-29T18:48:01;4.78;;;3.75;;
53034;SDS011;38923;53.236;6.506;2022-09-29T18:50:32;6.53;;;3.72;;
53034;SDS011;38923;53.236;6.506;2022-09-29T18:53:03;5.10;;;3.60;;
53034;SDS011;38923;53.236;6.506;2022-09-29T18:55:33;4.90;;;3.28;;
53034;SDS011;38923;53.236;6.506;2022-09-29T18:58:02;5.50;;;3.60;;
53034;SDS011;38923;53.236;6.506;2022-09-29T19:00:33;4.88;;;3.00;;
53034;SDS011;38923;53.236;6.506;2022-09-29T19:03:03;3.85;;;3.10;;
53034;SDS011;38923;53.236;6.506;2022-09-29T19:05:38;3.90;;;3.20;;
53034;SDS011;38923;53.236;6.506;2022-09-29T19:08:06;4.07;;;3.00;;
53034;SDS011;38923;53.236;6.506;2022-09-29T19:10:33;5.45;;;3.05;;
53034;SDS011;38923;53.236;6.506;2022-09-29T19:13:03;5.55;;;3.35;;
53034;SDS011;38923;53.236;6.506;2022-09-29T19:15:34;3.92;;;3.13;;
53034;SDS011;38923;53.236;6.506;2022-09-29T19:18:02;4.82;;;2.95;;
53034;SDS011;38923;53.236;6.506;2022-09-29T19:20:29;4.80;;;3.30;;
53034;SDS011;38923;53.236;6.506;2022-09-29T19:29:21;5.50;;;3.70;;
53034;SDS011;38923;53.236;6.506;2022-09-29T19:31:50;5.18;;;4.05;;
53034;SDS011;38923;53.236;6.506;2022-09-29T19:34:19;5.78;;;3.78;;
53034;SDS011;38923;53.236;6.506;2022-09-29T19:36:49;4.60;;;3.80;;
53034;SDS011;38923;53.236;6.506;2022-09-29T19:39:22;5.50;;;4.35;;
53034;SDS011;38923;53.236;6.506;2022-09-29T19:41:52;7.03;;;4.50;;
53034;SDS011;38923;53.236;6.506;2022-09-29T19:44:19;6.60;;;5.13;;
53034;SDS011;38923;53.236;6.506;2022-09-29T19:46:46;6.38;;;4.70;;
53034;SDS011;38923;53.236;6.506;2022-09-29T19:49:13;9.95;;;4.93;;
53034;SDS011;38923;53.236;6.506;2022-09-29T19:51:42;6.63;;;5.00;;
53034;SDS011;38923;53.236;6.506;2022-09-29T19:54:17;6.75;;;4.63;;
53034;SDS011;38923;53.236;6.506;2022-09-29T19:56:51;7.20;;;4.80;;
53034;SDS011;38923;53.236;6.506;2022-09-29T19:59:20;7.07;;;4.70;;